createdAt,value
2019-02-02T00:01:10.061Z,1.44
2019-02-02T00:03:59.883Z,1.39
2019-02-02T00:06:42.522Z,1.21
2019-02-02T00:09:32.336Z,1.16
2019-02-02T00:12:14.415Z,1.18
2019-02-02T00:18:00.236Z,1.09
2019-02-02T00:23:53.657Z,1.04
2019-02-02T00:26:43.419Z,1.50
2019-02-02T00:29:33.369Z,1.65
2019-02-02T00:32:23.165Z,1.53
2019-02-02T00:35:13.051Z,1.65
2019-02-02T00:38:02.833Z,1.77
2019-02-02T00:41:04.409Z,1.81
2019-02-02T00:43:48.801Z,1.83
2019-02-02T00:46:38.519Z,1.88
2019-02-02T00:49:21.326Z,1.83
2019-02-02T00:52:11.147Z,2.12
2019-02-02T00:54:53.957Z,2.06
2019-02-02T00:57:53.133Z,2.13
2019-02-02T01:00:27.669Z,2.19
2019-02-02T01:03:17.380Z,2.12
2019-02-02T01:05:59.910Z,2.16
2019-02-02T01:08:49.868Z,2.09
2019-02-02T01:11:32.474Z,2.08
2019-02-02T01:14:22.167Z,2.01
2019-02-02T01:17:04.360Z,2.06
2019-02-02T01:19:54.070Z,1.96
2019-02-02T01:23:02.882Z,1.87
2019-02-02T01:25:46.752Z,2.06
2019-02-02T01:28:36.532Z,1.96
2019-02-02T01:31:26.366Z,2.11
2019-02-02T01:34:16.164Z,1.96
2019-02-02T01:37:05.931Z,1.78
2019-02-02T01:39:55.682Z,1.95
2019-02-02T01:42:45.412Z,2.02
2019-02-02T01:45:35.162Z,1.98
2019-02-02T01:48:17.386Z,2.06
2019-02-02T01:51:07.106Z,2.10
2019-02-02T01:53:49.713Z,2.11
2019-02-02T01:56:39.432Z,1.96
2019-02-02T01:59:21.491Z,2.06
2019-02-02T02:02:11.219Z,1.97
2019-02-02T02:04:53.358Z,1.96
2019-02-02T02:07:43.312Z,2.09
2019-02-02T02:10:25.902Z,2.00
2019-02-02T02:13:15.600Z,2.03
2019-02-02T02:16:05.315Z,1.97
2019-02-02T02:18:48.131Z,2.04
2019-02-02T02:21:37.905Z,2.00
2019-02-02T02:24:27.635Z,1.92
2019-02-02T02:27:17.681Z,2.02
2019-02-02T02:30:00.286Z,2.20
2019-02-02T02:32:50.027Z,2.27
2019-02-02T02:35:39.812Z,2.21
2019-02-02T02:38:29.574Z,2.12
2019-02-02T02:41:19.370Z,2.09
2019-02-02T02:44:01.599Z,2.01
2019-02-02T02:46:51.334Z,1.30
2019-02-02T02:49:33.570Z,0.77
2019-02-02T02:52:23.500Z,0.74
2019-02-02T02:55:26.227Z,0.90
2019-02-02T02:58:08.832Z,0.90
2019-02-02T03:00:39.521Z,0.88
2019-02-02T03:03:29.365Z,0.70
2019-02-02T03:06:11.287Z,0.75
2019-02-02T03:09:20.275Z,0.94
2019-02-02T03:12:29.113Z,1.05
2019-02-02T03:18:35.629Z,1.16
2019-02-02T03:21:25.378Z,1.10
2019-02-02T03:24:07.390Z,1.48
2019-02-02T03:26:57.133Z,1.54
2019-02-02T03:29:39.462Z,1.58
2019-02-02T03:32:29.214Z,1.71
2019-02-02T03:35:40.207Z,1.70
2019-02-02T03:38:23.147Z,1.81
2019-02-02T03:44:10.442Z,1.56
2019-02-02T03:46:53.418Z,1.74
2019-02-02T03:49:43.179Z,1.92
2019-02-02T03:52:32.925Z,1.79
2019-02-02T03:55:22.707Z,1.97
2019-02-02T03:58:12.511Z,1.85
2019-02-02T04:01:02.301Z,1.53
2019-02-02T04:04:11.169Z,1.34
2019-02-02T04:10:05.295Z,1.23
2019-02-02T04:12:47.408Z,1.10
2019-02-02T04:15:37.229Z,0.79
2019-02-02T04:18:46.061Z,0.70
2019-02-02T04:21:28.077Z,0.62
2019-02-02T04:24:17.863Z,0.26
2019-02-02T04:27:08.739Z,0.24
2019-02-02T04:29:58.661Z,0.38
2019-02-02T04:32:48.475Z,0.79
2019-02-02T04:35:38.284Z,1.00
2019-02-02T04:38:28.398Z,1.03
2019-02-02T04:41:18.192Z,0.91
2019-02-02T04:44:07.948Z,1.21
2019-02-02T04:46:57.732Z,1.12
2019-02-02T04:49:47.628Z,1.31
2019-02-02T04:52:37.419Z,1.39
2019-02-02T04:55:27.243Z,1.55
2019-02-02T05:01:13.744Z,1.49
2019-02-02T05:04:03.484Z,1.50
2019-02-02T05:06:45.894Z,1.65
2019-02-02T05:09:35.644Z,1.66
2019-02-02T05:12:18.218Z,1.38
2019-02-02T05:15:08.291Z,1.16
2019-02-02T05:17:50.657Z,1.23
2019-02-02T05:20:40.356Z,1.38
2019-02-02T05:23:22.633Z,1.33
2019-02-02T05:26:12.383Z,1.29
2019-02-02T05:28:55.772Z,1.41
2019-02-02T05:31:45.542Z,1.24
2019-02-02T05:34:28.001Z,1.46
2019-02-02T05:37:17.854Z,1.55
2019-02-02T05:40:00.517Z,1.46
2019-02-02T05:43:09.173Z,1.49
2019-02-02T05:45:52.078Z,1.59
2019-02-02T05:49:00.919Z,1.73
2019-02-02T05:51:43.473Z,1.68
2019-02-02T05:54:33.146Z,1.79
2019-02-02T05:57:15.767Z,1.51
2019-02-02T06:00:08.348Z,1.45
2019-02-02T06:02:50.972Z,1.51
2019-02-02T06:05:40.730Z,1.33
2019-02-02T06:08:23.396Z,1.18
2019-02-02T06:11:13.130Z,1.26
2019-02-02T06:13:55.012Z,1.29
2019-02-02T06:16:44.753Z,1.56
2019-02-02T06:19:34.465Z,1.72
2019-02-02T06:22:24.253Z,1.55
2019-02-02T06:25:14.060Z,1.63
2019-02-02T06:28:03.927Z,1.74
2019-02-02T06:30:53.702Z,1.79
2019-02-02T06:33:43.479Z,1.88
2019-02-02T06:36:33.884Z,1.98
2019-02-02T06:39:23.631Z,1.86
2019-02-02T06:42:13.346Z,1.75
2019-02-02T06:44:55.317Z,1.74
2019-02-02T06:50:39.466Z,1.91
2019-02-02T06:53:29.251Z,1.76
2019-02-02T06:56:38.137Z,1.83
2019-02-02T06:59:20.371Z,1.94
2019-02-02T07:02:10.111Z,1.95
2019-02-02T07:04:40.826Z,1.97
2019-02-02T07:07:30.577Z,1.87
2019-02-02T07:10:17.566Z,1.95
2019-02-02T07:13:26.340Z,2.25
2019-02-02T07:16:16.142Z,2.24
2019-02-02T07:19:05.894Z,2.24
2019-02-02T07:22:11.325Z,2.22
2019-02-02T07:24:53.886Z,2.13
2019-02-02T07:27:43.633Z,2.32
2019-02-02T07:30:29.126Z,2.37
2019-02-02T07:33:17.740Z,2.38
2019-02-02T07:36:07.450Z,2.24
2019-02-02T07:38:50.055Z,2.45
2019-02-02T07:41:41.202Z,2.37
2019-02-02T07:44:23.854Z,2.24
2019-02-02T07:47:13.664Z,2.18
2019-02-02T07:50:22.615Z,2.40
2019-02-02T07:53:05.402Z,2.34
2019-02-02T07:55:55.220Z,2.37
2019-02-02T07:58:44.925Z,2.51
2019-02-02T08:01:34.698Z,2.58
2019-02-02T08:04:24.413Z,2.60
2019-02-02T08:07:06.933Z,2.44
2019-02-02T08:09:56.686Z,2.57
2019-02-02T08:12:39.160Z,2.53
2019-02-02T08:15:30.755Z,2.73
2019-02-02T08:18:13.348Z,2.70
2019-02-02T08:21:03.152Z,2.83
2019-02-02T08:23:45.412Z,2.97
2019-02-02T08:26:35.147Z,2.88
2019-02-02T08:29:17.921Z,2.91
2019-02-02T08:35:11.319Z,2.97
2019-02-02T08:38:01.074Z,2.96
2019-02-02T08:40:43.207Z,2.99
2019-02-02T08:43:32.975Z,2.99
2019-02-02T08:46:15.687Z,3.03
2019-02-02T08:49:05.593Z,2.94
2019-02-02T08:51:47.943Z,2.78
2019-02-02T08:54:37.644Z,2.70
2019-02-02T08:57:19.920Z,2.97
2019-02-02T09:00:13.077Z,2.97
2019-02-02T09:02:55.348Z,3.03
2019-02-02T09:05:45.081Z,3.17
2019-02-02T09:08:27.000Z,3.31
2019-02-02T09:11:16.769Z,3.31
2019-02-02T09:13:59.039Z,3.19
2019-02-02T09:16:48.856Z,2.85
2019-02-02T09:19:38.718Z,2.53
2019-02-02T09:22:28.527Z,2.60
2019-02-02T09:25:18.777Z,2.80
2019-02-02T09:28:08.504Z,2.86
2019-02-02T09:30:58.195Z,2.92
2019-02-02T09:33:47.943Z,2.77
2019-02-02T09:36:30.178Z,2.59
2019-02-02T09:39:19.920Z,2.65
2019-02-02T09:42:02.097Z,2.85
2019-02-02T09:44:51.860Z,2.24
2019-02-02T09:47:41.677Z,1.86
2019-02-02T09:50:31.630Z,2.21
2019-02-02T09:53:21.400Z,1.94
2019-02-02T09:56:11.239Z,1.64
2019-02-02T09:59:01.187Z,1.65
2019-02-02T10:01:50.927Z,1.68
2019-02-02T10:04:40.672Z,1.77
2019-02-02T10:07:30.506Z,1.78
2019-02-02T10:10:22.337Z,1.63
2019-02-02T10:13:12.093Z,1.71
2019-02-02T10:16:01.864Z,1.77
2019-02-02T10:18:51.676Z,1.77
2019-02-02T10:21:41.479Z,1.46
2019-02-02T10:24:31.207Z,1.42
2019-02-02T10:27:20.962Z,1.53
2019-02-02T10:30:30.757Z,1.57
2019-02-02T10:33:20.552Z,1.62
2019-02-02T10:36:03.484Z,1.60
2019-02-02T10:38:53.385Z,1.61
2019-02-02T10:41:43.229Z,1.54
2019-02-02T10:44:33.060Z,1.63
2019-02-02T10:47:22.906Z,1.66
2019-02-02T10:50:13.702Z,1.76
2019-02-02T10:53:03.448Z,1.76
2019-02-02T10:56:06.327Z,1.87
2019-02-02T10:58:48.672Z,1.89
2019-02-02T11:01:38.386Z,1.93
2019-02-02T11:04:21.606Z,1.97
2019-02-02T11:07:11.448Z,2.07
2019-02-02T11:09:53.405Z,2.20
2019-02-02T11:12:43.249Z,2.15
2019-02-02T11:15:25.730Z,2.27
2019-02-02T11:18:15.520Z,2.02
2019-02-02T11:20:58.106Z,2.00
2019-02-02T11:23:47.919Z,1.97
2019-02-02T11:26:37.719Z,2.21
2019-02-02T11:29:27.528Z,2.09
2019-02-02T11:32:17.296Z,2.17
2019-02-02T11:35:08.418Z,2.54
2019-02-02T11:37:58.324Z,2.20
2019-02-02T11:40:48.094Z,2.10
2019-02-02T11:43:37.820Z,2.12
2019-02-02T11:46:20.019Z,2.12
2019-02-02T11:49:09.799Z,2.32
2019-02-02T11:51:59.559Z,2.35
2019-02-02T11:55:02.625Z,2.28
2019-02-02T11:57:44.937Z,2.12
2019-02-02T12:00:53.684Z,2.11
2019-02-02T12:03:35.969Z,2.10
2019-02-02T12:06:25.706Z,2.20
2019-02-02T12:09:08.543Z,2.30
2019-02-02T12:11:58.282Z,2.24
2019-02-02T12:14:40.687Z,2.51
2019-02-02T12:17:30.494Z,2.59
2019-02-02T12:20:13.387Z,2.71
2019-02-02T12:23:03.293Z,3.01
2019-02-02T12:25:47.101Z,2.86
2019-02-02T12:28:36.823Z,3.04
2019-02-02T12:31:19.087Z,3.37
2019-02-02T12:34:08.811Z,3.43
2019-02-02T12:36:50.831Z,3.39
2019-02-02T12:39:40.611Z,3.25
2019-02-02T12:42:23.441Z,3.48
2019-02-02T12:45:16.164Z,3.44
2019-02-02T12:47:58.847Z,3.59
2019-02-02T12:50:48.580Z,3.51
2019-02-02T12:53:31.367Z,3.74
2019-02-02T12:56:21.108Z,3.69
2019-02-02T12:59:03.498Z,3.57
2019-02-02T13:01:53.315Z,3.58
2019-02-02T13:04:43.112Z,3.66
2019-02-02T13:07:32.833Z,3.71
2019-02-02T13:10:16.840Z,3.96
2019-02-02T13:13:06.731Z,4.17
2019-02-02T13:15:56.447Z,4.16
2019-02-02T13:18:40.519Z,4.20
2019-02-02T13:21:30.436Z,4.18
2019-02-02T13:24:20.209Z,3.91
2019-02-02T13:27:10.031Z,3.85
2019-02-02T13:29:59.745Z,3.60
2019-02-02T13:32:49.454Z,3.23
2019-02-02T13:35:35.202Z,3.11
2019-02-02T13:38:37.668Z,3.03
2019-02-02T13:41:08.417Z,3.24
2019-02-02T13:43:58.142Z,3.49
2019-02-02T13:46:41.124Z,3.69
2019-02-02T13:49:30.826Z,3.39
2019-02-02T13:52:13.687Z,3.51
2019-02-02T13:55:03.526Z,3.70
2019-02-02T13:57:46.113Z,3.77
2019-02-02T14:00:35.868Z,3.70
2019-02-02T14:03:18.552Z,3.85
2019-02-02T14:06:08.292Z,3.92
2019-02-02T14:08:52.216Z,3.97
2019-02-02T14:11:41.917Z,3.83
2019-02-02T14:14:24.202Z,3.76
2019-02-02T14:17:13.970Z,3.56
2019-02-02T14:19:56.497Z,3.51
2019-02-02T14:22:46.252Z,3.70
2019-02-02T14:25:32.622Z,3.37
2019-02-02T14:28:28.517Z,3.23
2019-02-02T14:31:06.926Z,3.01
2019-02-02T14:33:56.857Z,2.93
2019-02-02T14:36:39.011Z,3.18
2019-02-02T14:39:28.982Z,3.50
2019-02-02T14:42:11.072Z,3.56
2019-02-02T14:45:00.810Z,3.45
2019-02-02T14:47:43.191Z,3.63
2019-02-02T14:50:32.959Z,3.79
2019-02-02T14:53:16.656Z,3.85
2019-02-02T14:56:06.490Z,3.89
2019-02-02T14:58:48.804Z,3.92
2019-02-02T15:01:38.596Z,4.00
2019-02-02T15:04:20.923Z,3.63
2019-02-02T15:10:12.452Z,3.11
2019-02-02T15:13:02.159Z,3.05
2019-02-02T15:15:44.553Z,3.07
2019-02-02T15:18:34.264Z,3.16
2019-02-02T15:21:16.762Z,3.14
2019-02-02T15:24:06.523Z,3.36
2019-02-02T15:26:48.855Z,3.52
2019-02-02T15:29:38.590Z,3.64
2019-02-02T15:32:21.012Z,3.59
2019-02-02T15:35:10.760Z,3.38
2019-02-02T15:37:52.945Z,3.45
2019-02-02T15:40:42.716Z,3.56
2019-02-02T15:43:32.496Z,3.47
2019-02-02T15:46:22.273Z,3.67
2019-02-02T15:49:12.265Z,3.76
2019-02-02T15:51:54.129Z,3.83
2019-02-02T15:54:43.837Z,3.78
2019-02-02T15:57:26.024Z,3.71
2019-02-02T16:00:36.101Z,3.75
2019-02-02T16:06:48.331Z,3.74
2019-02-02T16:09:32.750Z,3.64
2019-02-02T16:12:22.593Z,3.73
2019-02-02T16:18:10.045Z,3.82
2019-02-02T16:20:59.909Z,3.72
2019-02-02T16:23:43.118Z,3.74
2019-02-02T16:26:32.854Z,3.68
2019-02-02T16:29:15.143Z,3.83
2019-02-02T16:32:04.867Z,3.69
2019-02-02T16:34:48.506Z,3.70
2019-02-02T16:43:58.924Z,4.08
2019-02-02T16:46:48.669Z,4.02
2019-02-02T16:49:32.096Z,3.72
2019-02-02T16:52:21.883Z,3.65
2019-02-02T16:55:05.315Z,3.69
2019-02-02T16:57:55.050Z,3.71
2019-02-02T17:00:38.757Z,3.84
2019-02-02T17:03:28.554Z,3.84
2019-02-02T17:06:11.479Z,3.81
2019-02-02T17:09:01.255Z,3.78
2019-02-02T17:11:43.491Z,3.68
2019-02-02T17:14:33.221Z,3.90
2019-02-02T17:17:15.559Z,3.93
2019-02-02T17:23:21.619Z,3.75
2019-02-02T17:26:04.043Z,3.72
2019-02-02T17:28:53.869Z,3.36
2019-02-02T17:31:43.871Z,3.60
2019-02-02T17:34:33.770Z,3.52
2019-02-02T17:37:23.543Z,3.50
2019-02-02T17:40:18.333Z,3.20
2019-02-02T17:43:08.148Z,3.46
2019-02-02T17:45:58.009Z,3.58
2019-02-02T17:49:00.784Z,3.39
2019-02-02T17:51:44.513Z,3.32
2019-02-02T17:54:34.298Z,3.56
2019-02-02T17:57:16.938Z,3.29
2019-02-02T18:00:09.833Z,3.37
2019-02-02T18:02:52.743Z,3.40
2019-02-02T18:05:42.652Z,3.46
2019-02-02T18:08:32.453Z,3.36
2019-02-02T18:11:22.281Z,3.37
2019-02-02T18:14:12.057Z,3.35
2019-02-02T18:17:01.820Z,3.27
2019-02-02T18:19:51.635Z,3.42
2019-02-02T18:22:34.312Z,3.28
2019-02-02T18:25:43.121Z,3.51
2019-02-02T18:28:25.605Z,3.52
2019-02-02T18:31:15.421Z,3.33
2019-02-02T18:33:57.779Z,3.18
2019-02-02T18:36:47.558Z,2.98
2019-02-02T18:39:37.355Z,3.17
2019-02-02T18:42:27.147Z,3.18
2019-02-02T18:45:21.748Z,3.11
2019-02-02T18:51:14.671Z,3.10
2019-02-02T18:53:57.310Z,3.47
2019-02-02T18:56:47.134Z,3.44
2019-02-02T18:59:36.967Z,3.61
2019-02-02T19:02:26.737Z,3.55
2019-02-02T19:05:16.654Z,3.71
2019-02-02T19:07:58.601Z,3.67
2019-02-02T19:10:48.446Z,3.74
2019-02-02T19:13:38.274Z,3.55
2019-02-02T19:16:28.060Z,3.61
2019-02-02T19:19:17.860Z,3.26
2019-02-02T19:22:07.641Z,3.22
2019-02-02T19:24:57.552Z,3.10
2019-02-02T19:27:47.456Z,3.10
2019-02-02T19:30:37.246Z,3.04
2019-02-02T19:33:27.033Z,3.44
2019-02-02T19:36:16.924Z,3.63
2019-02-02T19:39:08.821Z,3.67
2019-02-02T19:41:58.620Z,3.70
2019-02-02T19:44:48.374Z,3.53
2019-02-02T19:47:38.128Z,3.34
2019-02-02T19:50:27.880Z,3.57
2019-02-02T19:53:10.000Z,3.56
2019-02-02T19:59:03.468Z,3.43
2019-02-02T20:01:47.429Z,3.61
2019-02-02T20:04:37.312Z,3.30
2019-02-02T20:10:23.382Z,3.18
2019-02-02T20:13:05.565Z,3.29
2019-02-02T20:15:55.355Z,3.07
2019-02-02T20:18:45.173Z,2.93
2019-02-02T20:21:34.984Z,2.81
2019-02-02T20:24:24.777Z,2.62
2019-02-02T20:27:14.497Z,2.90
2019-02-02T20:30:16.600Z,3.03
2019-02-02T20:32:59.161Z,2.94
2019-02-02T20:35:48.918Z,2.79
2019-02-02T20:38:40.201Z,2.80
2019-02-02T20:41:22.602Z,2.59
2019-02-02T20:44:12.354Z,2.79
2019-02-02T20:47:03.179Z,2.96
2019-02-02T20:49:46.079Z,3.18
2019-02-02T20:52:46.596Z,3.18
2019-02-02T20:55:20.987Z,3.47
2019-02-02T20:58:11.182Z,3.54
2019-02-02T21:00:53.545Z,3.48
2019-02-02T21:03:43.325Z,3.63
2019-02-02T21:06:26.031Z,3.34
2019-02-02T21:09:15.839Z,3.50
2019-02-02T21:11:58.845Z,3.38
2019-02-02T21:14:48.610Z,3.32
2019-02-02T21:17:31.053Z,3.31
2019-02-02T21:20:14.594Z,3.32
2019-02-02T21:23:04.372Z,3.45
2019-02-02T21:25:54.381Z,3.52
2019-02-02T21:28:36.953Z,3.60
2019-02-02T21:31:26.955Z,3.51
2019-02-02T21:34:17.017Z,3.81
2019-02-02T21:37:06.993Z,3.57
2019-02-02T21:39:57.081Z,3.68
2019-02-02T21:42:46.839Z,3.08
2019-02-02T21:45:36.653Z,2.94
2019-02-02T21:48:26.454Z,3.01
2019-02-02T21:51:16.225Z,2.90
2019-02-02T21:54:06.127Z,2.63
2019-02-02T21:56:55.937Z,2.60
2019-02-02T21:59:45.835Z,2.57
2019-02-02T22:02:35.620Z,2.47
2019-02-02T22:05:25.352Z,2.55
2019-02-02T22:07:56.018Z,2.48
2019-02-02T22:10:26.671Z,2.45
2019-02-02T22:13:25.972Z,2.41
2019-02-02T22:16:15.794Z,2.46
2019-02-02T22:19:05.582Z,2.37
2019-02-02T22:21:55.362Z,2.24
2019-02-02T22:24:37.795Z,2.13
2019-02-02T22:27:27.562Z,2.09
2019-02-02T22:30:13.650Z,2.23
2019-02-02T22:33:03.400Z,2.01
2019-02-02T22:35:45.920Z,2.22
2019-02-02T22:38:28.636Z,2.20
2019-02-02T22:41:18.477Z,2.22
2019-02-02T22:44:08.373Z,2.25
2019-02-02T22:46:58.152Z,2.24
2019-02-02T22:49:47.977Z,2.29
2019-02-02T22:52:37.810Z,2.31
2019-02-02T22:58:35.854Z,2.41
2019-02-02T23:01:27.220Z,2.43
2019-02-02T23:04:12.266Z,2.41
2019-02-02T23:07:23.748Z,2.37
2019-02-02T23:10:51.704Z,2.26
2019-02-02T23:14:19.613Z,2.27
2019-02-02T23:17:09.389Z,2.53
2019-02-02T23:20:00.477Z,2.63
2019-02-02T23:22:43.450Z,2.67
2019-02-02T23:25:25.665Z,2.66
2019-02-02T23:28:15.405Z,2.68
2019-02-02T23:31:05.210Z,2.67
2019-02-02T23:33:55.002Z,2.69
2019-02-02T23:39:48.398Z,2.64
2019-02-02T23:42:30.880Z,2.58
2019-02-02T23:48:21.467Z,2.73
2019-02-02T23:54:14.350Z,2.75
2019-02-02T23:57:04.101Z,2.80
2019-02-02T23:59:47.686Z,2.80
